createdAt,value
2016-04-05T00:00:17.464Z,72.69
2016-04-05T00:01:17.202Z,72.97
2016-04-05T00:02:16.751Z,73.17
2016-04-05T00:03:16.754Z,73.17
2016-04-05T00:04:16.788Z,73.07
2016-04-05T00:05:16.760Z,73.36
2016-04-05T00:06:16.730Z,73.26
2016-04-05T00:07:16.750Z,73.17
2016-04-05T00:08:30.908Z,73.36
2016-04-05T00:09:17.427Z,73.45
2016-04-05T00:10:16.741Z,73.07
2016-04-05T00:11:16.729Z,73.07
2016-04-05T00:12:17.201Z,73.07
2016-04-05T00:13:16.718Z,72.97
2016-04-05T00:14:16.831Z,72.97
2016-04-05T00:15:16.723Z,73.26
2016-04-05T00:16:16.695Z,73.17
2016-04-05T00:17:16.698Z,73.07
2016-04-05T00:18:16.700Z,73.17
2016-04-05T00:19:16.688Z,73.17
2016-04-05T00:20:16.753Z,72.97
2016-04-05T00:21:16.693Z,73.17
2016-04-05T00:22:16.681Z,73.26
2016-04-05T00:24:16.670Z,73.07
2016-04-05T00:25:18.141Z,73.07
2016-04-05T00:26:17.019Z,73.45
2016-04-05T00:27:16.662Z,73.26
2016-04-05T00:28:17.337Z,73.36
2016-04-05T00:29:16.684Z,73.36
2016-04-05T00:30:16.655Z,73.17
2016-04-05T00:31:16.642Z,72.88
2016-04-05T00:32:18.989Z,73.07
2016-04-05T00:33:18.242Z,73.17
2016-04-05T00:34:16.635Z,73.26
2016-04-05T00:35:16.841Z,73.17
2016-04-05T00:36:16.780Z,73.17
2016-04-05T00:37:16.627Z,73.17
2016-04-05T00:38:16.879Z,73.17
2016-04-05T00:39:16.616Z,73.07
2016-04-05T00:40:16.604Z,73.17
2016-04-05T00:41:16.607Z,73.17
2016-04-05T00:42:16.610Z,73.07
2016-04-05T00:43:16.596Z,73.45
2016-04-05T00:44:16.599Z,73.36
2016-04-05T00:45:16.585Z,73.55
2016-04-05T00:46:16.604Z,73.55
2016-04-05T00:47:16.591Z,73.45
2016-04-05T00:48:16.609Z,73.83
2016-04-05T00:49:16.581Z,73.36
2016-04-05T00:50:16.583Z,73.74
2016-04-05T00:51:16.570Z,73.17
2016-04-05T00:52:16.573Z,73.45
2016-04-05T00:53:16.560Z,73.55
2016-04-05T00:54:16.579Z,73.93
2016-04-05T00:55:16.566Z,73.83
2016-04-05T00:56:16.569Z,73.89
2016-04-05T00:57:16.540Z,74.08
2016-04-05T00:58:16.542Z,74.08
2016-04-05T00:59:16.545Z,73.61
2016-04-05T01:00:16.547Z,73.32
2016-04-05T01:01:16.535Z,74.18
2016-04-05T01:02:16.538Z,74.84
2016-04-05T01:03:16.525Z,74.18
2016-04-05T01:04:16.528Z,74.27
2016-04-05T01:05:16.515Z,74.75
2016-04-05T01:06:16.517Z,74.46
2016-04-05T01:07:16.520Z,74.37
2016-04-05T01:08:16.522Z,74.65
2016-04-05T01:09:16.510Z,74.65
2016-04-05T01:10:16.513Z,74.75
2016-04-05T01:11:16.499Z,75.04
2016-04-05T01:12:16.502Z,74.56
2016-04-05T01:13:16.489Z,75.04
2016-04-05T01:14:16.476Z,74.84
2016-04-05T01:15:16.479Z,74.65
2016-04-05T01:16:16.497Z,74.75
2016-04-05T01:17:16.484Z,75.23
2016-04-05T01:18:16.815Z,75.13
2016-04-05T01:19:16.474Z,75.42
2016-04-05T01:20:16.462Z,75.13
2016-04-05T01:21:16.464Z,75.23
2016-04-05T01:22:16.607Z,75.13
2016-04-05T01:23:16.453Z,75.13
2016-04-05T01:24:16.440Z,75.57
2016-04-05T01:25:16.443Z,75.57
2016-04-05T01:26:16.445Z,75.67
2016-04-05T01:27:17.433Z,75.79
2016-04-05T01:28:16.436Z,75.57
2016-04-05T01:29:16.672Z,75.95
2016-04-05T01:30:16.425Z,75.76
2016-04-05T01:31:16.428Z,75.95
2016-04-05T01:32:16.462Z,75.85
2016-04-05T01:33:16.715Z,75.85
2016-04-05T01:34:16.405Z,76.14
2016-04-05T01:35:16.424Z,76.52
2016-04-05T01:36:16.394Z,76.42
2016-04-05T01:37:16.397Z,76.42
2016-04-05T01:38:16.385Z,76.23
2016-04-05T01:39:16.387Z,76.23
2016-04-05T01:40:16.391Z,76.81
2016-04-05T01:41:16.393Z,76.9
2016-04-05T01:42:17.114Z,76.61
2016-04-05T01:43:17.117Z,76.71
2016-04-05T01:44:16.369Z,76.61
2016-04-05T01:45:17.294Z,76.71
2016-04-05T01:46:16.224Z,76.61
2016-04-05T01:47:16.186Z,76.42
2016-04-05T01:48:16.485Z,76.42
2016-04-05T01:49:17.275Z,76.61
2016-04-05T01:50:16.341Z,76.81
2016-04-05T01:51:17.734Z,77.09
2016-04-05T01:52:16.331Z,77.47
2016-04-05T01:53:17.209Z,77.19
2016-04-05T01:54:17.226Z,77.37
2016-04-05T01:55:16.840Z,77.19
2016-04-05T01:56:16.170Z,76.9
2016-04-05T01:57:16.439Z,77.09
2016-04-05T01:58:16.300Z,77.09
2016-04-05T01:59:16.303Z,77.53
2016-04-05T02:00:16.306Z,77.76
2016-04-05T02:01:16.293Z,78.1
2016-04-05T02:02:16.280Z,78.1
2016-04-05T02:03:16.267Z,78.29
2016-04-05T02:04:16.270Z,78
2016-04-05T02:05:16.273Z,78
2016-04-05T02:06:16.276Z,78.19
2016-04-05T02:07:16.262Z,78.19
2016-04-05T02:08:16.255Z,78.1
2016-04-05T02:09:16.258Z,78.19
2016-04-05T02:10:16.244Z,78.38
2016-04-05T02:11:16.231Z,78.67
2016-04-05T02:12:16.249Z,78.48
2016-04-05T02:13:16.221Z,78.77
2016-04-05T02:14:16.239Z,78.48
2016-04-05T02:15:16.241Z,78.57
2016-04-05T02:16:16.213Z,78.38
2016-04-05T02:17:16.215Z,78.77
2016-04-05T02:18:16.218Z,79.14
2016-04-05T02:19:16.206Z,78.86
2016-04-05T02:20:16.209Z,79.05
2016-04-05T02:21:16.196Z,79.43
2016-04-05T02:22:16.198Z,79.62
2016-04-05T02:23:16.185Z,79.62
2016-04-05T02:24:16.188Z,79.24
2016-04-05T02:25:16.159Z,79.81
2016-04-05T02:26:16.178Z,79.52
2016-04-05T02:27:16.148Z,79.33
2016-04-05T02:28:16.151Z,79.39
2016-04-05T02:29:16.154Z,79.81
2016-04-05T02:30:16.156Z,80.15
2016-04-05T02:31:16.145Z,79.96
2016-04-05T02:32:16.131Z,79.86
2016-04-05T02:33:16.134Z,79.58
2016-04-05T02:34:16.136Z,79.96
2016-04-05T02:35:16.139Z,79.86
2016-04-05T02:36:17.314Z,80.63
2016-04-05T02:37:16.676Z,80.76
2016-04-05T02:38:16.163Z,80.15
2016-04-05T02:39:16.103Z,80.44
2016-04-05T02:40:16.590Z,80.44
2016-04-05T02:41:16.702Z,80.44
2016-04-05T02:42:16.096Z,80.34
2016-04-05T02:43:16.098Z,80.24
2016-04-05T02:44:16.086Z,80.34
2016-04-05T02:45:16.071Z,80.15
2016-04-05T02:46:16.077Z,80.91
2016-04-05T02:47:16.098Z,80.82
2016-04-05T02:48:16.479Z,80.82
2016-04-05T02:49:16.047Z,80.72
2016-04-05T02:50:15.975Z,80.82
2016-04-05T02:51:16.130Z,80.53
2016-04-05T02:52:16.159Z,80.63
2016-04-05T02:53:15.954Z,80.53
2016-04-05T02:54:15.936Z,80.15
2016-04-05T02:55:15.951Z,81.1
2016-04-05T02:56:15.936Z,80.91
2016-04-05T02:57:15.922Z,80.82
2016-04-05T02:58:15.907Z,80.53
2016-04-05T02:59:15.908Z,81.01
2016-04-05T03:00:15.909Z,80.72
2016-04-05T03:01:15.911Z,81.01
2016-04-05T03:02:17.647Z,81.29
2016-04-05T03:03:16.634Z,80.82
2016-04-05T03:04:15.886Z,81.01
2016-04-05T03:05:15.872Z,80.91
2016-04-05T03:06:15.875Z,81.29
2016-04-05T03:07:15.862Z,81.29
2016-04-05T03:08:15.865Z,81.2
2016-04-05T03:09:15.868Z,81.67
2016-04-05T03:10:15.855Z,81.96
2016-04-05T03:11:16.749Z,81.67
2016-04-05T03:12:17.235Z,81.77
2016-04-05T03:13:16.941Z,81.86
2016-04-05T03:14:16.366Z,81.48
2016-04-05T03:15:15.821Z,81.38
2016-04-05T03:16:15.808Z,82.15
2016-04-05T03:17:15.811Z,82.15
2016-04-05T03:18:15.798Z,82.15
2016-04-05T03:19:15.801Z,82.15
2016-04-05T03:20:15.803Z,82.24
2016-04-05T03:21:15.806Z,82.43
2016-04-05T03:22:15.793Z,82.05
2016-04-05T03:23:15.781Z,82.43
2016-04-05T03:24:15.783Z,82.24
2016-04-05T03:25:15.754Z,82.15
2016-04-05T03:26:15.773Z,82.43
2016-04-05T03:27:15.745Z,82.43
2016-04-05T03:28:15.762Z,82.62
2016-04-05T03:29:15.750Z,82.71
2016-04-05T03:30:15.753Z,82.81
2016-04-05T03:31:15.740Z,82.34
2016-04-05T03:32:15.727Z,82.34
2016-04-05T03:33:15.729Z,82.34
2016-04-05T03:34:15.717Z,82.91
2016-04-05T03:35:15.720Z,82.91
2016-04-05T03:36:15.703Z,83.19
2016-04-05T03:37:15.706Z,83.19
2016-04-05T03:38:15.693Z,83.1
2016-04-05T03:39:15.681Z,83.29
2016-04-05T03:40:15.683Z,83.29
2016-04-05T03:41:15.670Z,83.29
2016-04-05T03:42:15.672Z,83.29
2016-04-05T03:43:15.660Z,83.19
2016-04-05T03:44:15.678Z,83.29
2016-04-05T03:45:15.666Z,83.71
2016-04-05T03:46:15.652Z,83.19
2016-04-05T03:47:15.655Z,83.58
2016-04-05T03:48:15.658Z,83
2016-04-05T03:49:15.646Z,83.29
2016-04-05T03:50:15.632Z,83.58
2016-04-05T03:51:15.635Z,83.52
2016-04-05T03:52:15.637Z,83.48
2016-04-05T03:53:15.609Z,83.52
2016-04-05T03:54:15.612Z,83.42
2016-04-05T03:56:29.790Z,83.71
2016-04-05T03:57:16.448Z,83.81
2016-04-05T03:58:15.591Z,83.52
2016-04-05T03:59:15.797Z,83.52
2016-04-05T04:00:15.690Z,83.14
2016-04-05T04:01:15.567Z,83.52
2016-04-05T04:02:15.570Z,83.52
2016-04-05T04:03:15.558Z,83.81
2016-04-05T04:04:15.560Z,83.71
2016-04-05T04:05:15.547Z,83.42
2016-04-05T04:06:16.347Z,83.23
2016-04-05T04:08:15.993Z,83.14
2016-04-05T04:09:15.527Z,83.62
2016-04-05T04:10:15.530Z,83.62
2016-04-05T04:11:15.533Z,83.04
2016-04-05T04:12:15.629Z,83.42
2016-04-05T04:13:15.506Z,83.04
2016-04-05T04:14:15.509Z,83.14
2016-04-05T04:15:15.699Z,83.33
2016-04-05T04:16:15.514Z,83.81
2016-04-05T04:17:15.502Z,83.62
2016-04-05T04:18:15.504Z,83.71
2016-04-05T04:19:15.491Z,83.52
2016-04-05T04:20:16.994Z,83.81
2016-04-05T04:21:16.590Z,83.71
2016-04-05T04:22:15.468Z,83.81
2016-04-05T04:23:16.439Z,83.62
2016-04-05T04:24:15.457Z,83.52
2016-04-05T04:25:15.601Z,83.52
2016-04-05T04:26:15.463Z,83.71
2016-04-05T04:27:15.435Z,84
2016-04-05T04:28:15.437Z,84
2016-04-05T04:30:15.692Z,83.52
2016-04-05T04:31:22.695Z,83.52
2016-04-05T04:32:16.057Z,83.62
2016-04-05T04:33:47.264Z,83.71
2016-04-05T04:34:30.876Z,83.33
2016-04-05T04:35:30.862Z,83.23
2016-04-05T04:36:31.099Z,83.52
2016-04-05T04:37:30.837Z,83.81
2016-04-05T04:38:30.839Z,83.14
2016-04-05T04:39:30.842Z,83.23
2016-04-05T04:40:30.845Z,83.33
2016-04-05T04:41:30.831Z,83.33
2016-04-05T04:42:30.834Z,83.71
2016-04-05T04:43:30.822Z,82.76
2016-04-05T04:44:30.824Z,83.18
2016-04-05T04:45:30.811Z,83.33
2016-04-05T04:46:30.814Z,83.33
2016-04-05T04:47:30.802Z,82.86
2016-04-05T04:48:30.819Z,82.61
2016-04-05T04:49:30.791Z,82.7
2016-04-05T04:50:30.793Z,82.42
2016-04-05T04:51:30.780Z,82.32
2016-04-05T04:52:30.783Z,82.23
2016-04-05T04:53:30.785Z,82.8
2016-04-05T04:54:30.774Z,82.42
2016-04-05T04:55:30.760Z,82.7
2016-04-05T04:56:30.762Z,82.8
2016-04-05T04:57:30.735Z,82.42
2016-04-05T04:58:30.752Z,82.42
2016-04-05T04:59:30.724Z,82.51
2016-04-05T05:00:30.742Z,82.42
2016-04-05T05:01:30.729Z,82.27
2016-04-05T05:02:30.576Z,82.04
2016-04-05T05:03:30.734Z,82.27
2016-04-05T05:04:30.722Z,82.08
2016-04-05T05:05:30.725Z,81.89
2016-04-05T05:06:30.711Z,81.6
2016-04-05T05:07:30.698Z,81.98
2016-04-05T05:08:30.717Z,81.7
2016-04-05T05:09:30.704Z,81.03
2016-04-05T05:10:30.706Z,80.98
2016-04-05T05:11:30.694Z,80.88
2016-04-05T05:12:30.697Z,80.98
2016-04-05T05:13:30.699Z,80.31
2016-04-05T05:14:31.842Z,80.44
2016-04-05T05:15:31.252Z,80.41
2016-04-05T05:16:30.676Z,80.26
2016-04-05T05:17:30.678Z,79.97
2016-04-05T05:18:30.665Z,79.68
2016-04-05T05:19:30.825Z,79.68
2016-04-05T05:20:30.671Z,79.4
2016-04-05T05:21:30.642Z,79.3
2016-04-05T05:22:30.661Z,79.49
2016-04-05T05:23:30.648Z,78.44
2016-04-05T05:24:31.260Z,78.92
2016-04-05T05:25:31.044Z,78.64
2016-04-05T05:26:30.640Z,78.54
2016-04-05T05:27:30.643Z,78.16
2016-04-05T05:28:30.646Z,77.87
2016-04-05T05:29:30.633Z,77.97
2016-04-05T05:30:30.776Z,78.44
2016-04-05T05:31:30.623Z,78.06
2016-04-05T05:32:30.625Z,78.06
2016-04-05T05:33:30.643Z,77.49
2016-04-05T05:34:30.615Z,77.59
2016-04-05T05:35:30.617Z,77.01
2016-04-05T05:36:30.620Z,77.4
2016-04-05T05:37:30.607Z,76.92
2016-04-05T05:38:32.141Z,77.11
2016-04-05T05:39:31.910Z,77.4
2016-04-05T05:40:30.647Z,77.11
2016-04-05T05:41:31.508Z,76.82
2016-04-05T05:42:30.590Z,77.01
2016-04-05T05:43:31.295Z,76.54
2016-04-05T05:44:30.580Z,76.54
2016-04-05T05:45:30.817Z,76.54
2016-04-05T05:46:30.803Z,76.73
2016-04-05T05:47:30.588Z,76.64
2016-04-05T05:48:30.808Z,76.92
2016-04-05T05:49:31.436Z,77.01
2016-04-05T05:50:31.235Z,76.92
2016-04-05T05:51:30.566Z,76.92
2016-04-05T05:52:30.569Z,76.59
2016-04-05T05:53:30.572Z,76.82
2016-04-05T05:54:31.013Z,76.82
2016-04-05T05:55:30.827Z,76.69
2016-04-05T05:56:30.549Z,76.64
2016-04-05T05:57:30.536Z,76.69
2016-04-05T05:58:30.554Z,76.69
2016-04-05T05:59:30.557Z,76.73
2016-04-05T06:00:30.388Z,76.92
2016-04-05T06:01:30.547Z,76.92
2016-04-05T06:02:30.534Z,76.35
2016-04-05T06:03:30.520Z,76.44
2016-04-05T06:04:30.524Z,76.44
2016-04-05T06:05:30.526Z,76.44
2016-04-05T06:06:30.528Z,76.35
2016-04-05T06:07:30.517Z,75.87
2016-04-05T06:08:30.519Z,76.16
2016-04-05T06:09:30.522Z,75.91
2016-04-05T06:10:30.509Z,75.81
2016-04-05T06:11:30.511Z,75.15
2016-04-05T06:12:30.514Z,74.77
2016-04-05T06:13:30.501Z,75.18
2016-04-05T06:14:30.503Z,74.13
2016-04-05T06:15:30.506Z,74.55
2016-04-05T06:16:30.509Z,74.27
2016-04-05T06:17:30.496Z,73.69
2016-04-05T06:18:30.499Z,73.54
2016-04-05T06:19:30.486Z,72.78
2016-04-05T06:20:30.488Z,72.91
2016-04-05T06:21:30.491Z,71.47
2016-04-05T06:22:30.494Z,71.51
2016-04-05T06:23:30.497Z,71.03
2016-04-05T06:24:30.500Z,70.3
2016-04-05T06:25:30.502Z,69.92
2016-04-05T06:26:31.004Z,69.06
2016-04-05T06:27:30.492Z,68.42
2016-04-05T06:28:30.479Z,68.04
2016-04-05T06:29:30.481Z,67.85
2016-04-05T06:30:30.469Z,67.21
2016-04-05T06:31:30.487Z,67.02
2016-04-05T06:32:30.474Z,66.67
2016-04-05T06:33:30.492Z,66
2016-04-05T06:34:30.729Z,65.26
2016-04-05T06:35:30.701Z,64.12
2016-04-05T06:36:30.812Z,63.67
2016-04-05T06:37:30.503Z,63.48
2016-04-05T06:38:30.506Z,62.65
2016-04-05T06:39:30.493Z,61.88
2016-04-05T06:40:30.511Z,61.05
2016-04-05T06:41:30.498Z,60.6
2016-04-05T06:42:30.517Z,60.11
2016-04-05T06:43:30.753Z,59.16
2016-04-05T06:44:30.866Z,58.99
2016-04-05T06:45:30.525Z,58.15
2016-04-05T06:46:31.418Z,57.29
2016-04-05T06:47:30.530Z,56.84
2016-04-05T06:48:30.938Z,56.1
2016-04-05T06:49:30.551Z,55.9
2016-04-05T06:50:30.538Z,54.78
2016-04-05T06:51:30.556Z,53.65
2016-04-05T06:52:30.559Z,52.71
2016-04-05T06:53:30.561Z,52.16
2016-04-05T06:54:30.564Z,51.12
2016-04-05T06:55:30.583Z,49.9
2016-04-05T06:56:30.585Z,48.64
2016-04-05T06:58:31.654Z,47.29
2016-04-05T06:59:30.624Z,47
2016-04-05T07:00:31.315Z,46.51
2016-04-05T07:01:31.099Z,45.94
2016-04-05T07:02:30.632Z,46.23
2016-04-05T07:03:31.135Z,46.01
2016-04-05T07:04:30.670Z,45.82
2016-04-05T07:05:30.672Z,45.43
2016-04-05T07:06:30.675Z,45.51
2016-04-05T07:07:31.226Z,45.34
2016-04-05T07:08:31.806Z,45.14
2016-04-05T07:09:31.481Z,44.85
2016-04-05T07:10:30.703Z,44.46
2016-04-05T07:11:31.205Z,44.1
2016-04-05T07:12:30.724Z,43.72
2016-04-05T07:13:30.742Z,43.43
2016-04-05T07:14:30.745Z,43.14
2016-04-05T07:15:30.763Z,42.68
2016-04-05T07:16:30.766Z,42.1
2016-04-05T07:17:30.050Z,41.54
2016-04-05T07:18:30.772Z,41.05
2016-04-05T07:19:30.805Z,41.08
2016-04-05T07:20:30.793Z,40.13
2016-04-05T07:21:30.811Z,40.13
2016-04-05T07:22:30.673Z,39.28
2016-04-05T07:23:30.847Z,38.7
2016-04-05T07:24:30.850Z,38.31
2016-04-05T07:25:30.868Z,37.94
2016-04-05T07:26:30.871Z,37.07
2016-04-05T07:27:30.889Z,36.98
2016-04-05T07:28:30.892Z,36.57
2016-04-05T07:29:30.910Z,37.24
2016-04-05T07:30:30.944Z,36.57
2016-04-05T07:31:30.948Z,35.7
2016-04-05T07:32:30.950Z,35.99
2016-04-05T07:33:30.967Z,35.8
2016-04-05T07:34:30.970Z,35
2016-04-05T07:35:31.004Z,35.68
2016-04-05T07:36:30.992Z,34.91
2016-04-05T07:37:31.009Z,34.81
2016-04-05T07:38:31.013Z,34.71
2016-04-05T07:39:31.031Z,34.89
2016-04-05T07:40:31.049Z,34.68
2016-04-05T07:41:31.067Z,35.45
2016-04-05T07:42:31.070Z,35.82
2016-04-05T07:43:31.089Z,36.3
2016-04-05T07:44:31.122Z,36.5
2016-04-05T07:45:31.110Z,35.82
2016-04-05T07:46:31.128Z,36.67
2016-04-05T07:47:31.130Z,37.06
2016-04-05T07:48:31.149Z,37.06
2016-04-05T07:49:31.136Z,36.98
2016-04-05T07:50:31.170Z,36.21
2016-04-05T07:51:31.172Z,36.01
2016-04-05T07:52:45.379Z,35.82
2016-04-05T07:53:31.194Z,35.82
2016-04-05T07:54:31.602Z,35.92
2016-04-05T07:55:31.762Z,35.71
2016-04-05T07:56:31.249Z,36.29
2016-04-05T07:57:31.235Z,36.09
2016-04-05T07:58:31.254Z,35.9
2016-04-05T07:59:31.257Z,36.29
2016-04-05T08:00:31.290Z,36.57
2016-04-05T08:01:31.278Z,35.8
2016-04-05T08:02:45.483Z,36.29
2016-04-05T08:04:31.457Z,36.85
2016-04-05T08:05:31.320Z,36.94
2016-04-05T08:06:31.338Z,37.25
2016-04-05T08:07:32.028Z,37.25
2016-04-05T08:08:31.359Z,37.06
2016-04-05T08:09:31.565Z,36.38
2016-04-05T08:10:31.364Z,36.75
2016-04-05T08:11:31.383Z,36.93
2016-04-05T08:12:31.385Z,37.41
2016-04-05T08:13:31.404Z,37.58
2016-04-05T08:14:31.406Z,38.06
2016-04-05T08:15:31.425Z,38.53
2016-04-05T08:16:32.958Z,39.11
2016-04-05T08:17:32.446Z,39.37
2016-04-05T08:18:31.480Z,39.37
2016-04-05T08:19:31.529Z,40.14
2016-04-05T08:20:31.642Z,40.14
2016-04-05T08:21:31.472Z,40.14
2016-04-05T08:22:31.896Z,40.99
2016-04-05T08:23:31.602Z,41.18
2016-04-05T08:24:31.495Z,41.28
2016-04-05T08:25:31.514Z,41.56
2016-04-05T08:26:32.626Z,41.93
2016-04-05T08:27:32.894Z,42.22
2016-04-05T08:28:32.366Z,42.32
2016-04-05T08:29:31.509Z,42.8
2016-04-05T08:30:32.012Z,42.58
2016-04-05T08:31:31.671Z,43.08
2016-04-05T08:32:31.532Z,42.89
2016-04-05T08:33:31.567Z,42.89
2016-04-05T08:34:31.538Z,42.6
2016-04-05T08:35:31.541Z,42.82
2016-04-05T08:36:31.559Z,42.33
2016-04-05T08:37:31.562Z,42.05
2016-04-05T08:38:31.564Z,42.07
2016-04-05T08:39:31.567Z,41.68
2016-04-05T08:40:31.586Z,41.59
2016-04-05T08:41:31.588Z,41.32
2016-04-05T08:42:31.592Z,41.22
2016-04-05T08:43:31.578Z,41.05
2016-04-05T08:44:31.596Z,41.05
2016-04-05T08:45:31.599Z,40.47
2016-04-05T08:46:31.602Z,40.2
2016-04-05T08:47:31.636Z,39.82
2016-04-05T08:48:31.622Z,39.26
2016-04-05T08:49:31.626Z,38.87
2016-04-05T08:50:31.628Z,38.79
2016-04-05T08:51:31.630Z,38.41
2016-04-05T08:52:31.649Z,38.31
2016-04-05T08:53:31.651Z,37.85
2016-04-05T08:54:31.655Z,38.04
2016-04-05T08:55:31.641Z,37.65
2016-04-05T08:56:31.660Z,37.27
2016-04-05T08:57:31.694Z,37.17
2016-04-05T08:58:31.665Z,37.27
2016-04-05T08:59:31.699Z,37
2016-04-05T09:00:31.687Z,36.4
2016-04-05T09:01:31.689Z,36.52
2016-04-05T09:02:31.707Z,36.13
2016-04-05T09:03:31.710Z,35.95
2016-04-05T09:04:31.729Z,35.57
2016-04-05T09:05:31.731Z,35.37
2016-04-05T09:06:31.749Z,34.7
2016-04-05T09:07:31.736Z,34.89
2016-04-05T09:08:31.754Z,34.71
2016-04-05T09:09:31.762Z,34.71
2016-04-05T09:10:31.764Z,34.52
2016-04-05T09:11:32.034Z,34.42
2016-04-05T09:13:31.789Z,34.13
2016-04-05T09:14:31.791Z,33.94
2016-04-05T09:16:31.813Z,33.26
2016-04-05T09:17:31.815Z,33.07
2016-04-05T09:18:32.021Z,33.28
2016-04-05T09:19:31.852Z,33.36
2016-04-05T09:20:31.855Z,33.45
2016-04-05T09:23:31.878Z,33.45
2016-04-05T09:24:31.943Z,33.17
2016-04-05T09:25:31.930Z,33.25
2016-04-05T09:26:31.885Z,33.54
2016-04-05T09:27:32.155Z,33.42
2016-04-05T09:28:31.907Z,33.14
2016-04-05T09:29:31.910Z,33.72
2016-04-05T09:30:31.928Z,33.62
2016-04-05T09:31:31.946Z,34.08
2016-04-05T09:32:31.949Z,34.18
2016-04-05T09:33:31.967Z,34.08
2016-04-05T09:34:31.970Z,33.89
2016-04-05T09:35:31.973Z,34.18
2016-04-05T09:36:31.960Z,33.7
2016-04-05T09:37:31.995Z,33.31
2016-04-05T09:38:31.981Z,33.1
2016-04-05T09:39:31.984Z,33.29
2016-04-05T09:40:32.002Z,33
2016-04-05T09:41:32.020Z,33
2016-04-05T09:42:32.007Z,33.78
2016-04-05T09:43:32.026Z,33.95
2016-04-05T09:44:32.028Z,33.95
2016-04-05T09:45:32.030Z,34.34
2016-04-05T09:46:32.033Z,34.05
2016-04-05T09:47:32.052Z,34.13
2016-04-05T09:48:32.054Z,34.42
2016-04-05T09:49:32.072Z,34.7
2016-04-05T09:50:32.076Z,34.61
2016-04-05T09:51:32.078Z,34.52
2016-04-05T09:52:32.080Z,34.52
2016-04-05T09:53:32.100Z,34.42
2016-04-05T09:54:32.102Z,34.9
2016-04-05T09:55:32.105Z,34.7
2016-04-05T09:56:32.107Z,34.7
2016-04-05T09:57:32.110Z,34.42
2016-04-05T09:58:32.129Z,35
2016-04-05T09:59:32.115Z,34.9
2016-04-05T10:00:32.134Z,34.7
2016-04-05T10:01:32.136Z,34.78
2016-04-05T10:02:32.140Z,34.59
2016-04-05T10:03:32.142Z,34.98
2016-04-05T10:04:32.145Z,35.08
2016-04-05T10:05:32.147Z,35.27
2016-04-05T10:06:32.165Z,35.08
2016-04-05T10:07:32.167Z,34.78
2016-04-05T10:08:32.186Z,34.78
2016-04-05T10:09:32.173Z,34.59
2016-04-05T10:10:32.191Z,34.69
2016-04-05T10:11:32.225Z,34.59
2016-04-05T10:12:32.197Z,34.78
2016-04-05T10:13:32.200Z,35.19
2016-04-05T10:14:32.203Z,34.9
2016-04-05T10:15:32.206Z,35.1
2016-04-05T10:16:32.224Z,34.7
2016-04-05T10:17:32.211Z,34.61
2016-04-05T10:18:32.230Z,35
2016-04-05T10:19:32.232Z,34.61
2016-04-05T10:20:32.235Z,34.59
2016-04-05T10:21:32.237Z,35.1
2016-04-05T10:22:32.255Z,35.1
2016-04-05T10:23:32.258Z,35.19
2016-04-05T10:24:32.276Z,35.38
2016-04-05T10:25:32.280Z,35.19
2016-04-05T10:26:32.282Z,35.48
2016-04-05T10:27:32.269Z,35.1
2016-04-05T10:28:32.288Z,35.19
2016-04-05T10:29:32.274Z,35.28
2016-04-05T10:30:32.277Z,34.61
2016-04-05T10:31:32.951Z,34.9
2016-04-05T10:32:32.360Z,35
2016-04-05T10:33:32.801Z,34.8
2016-04-05T10:34:32.319Z,34.61
2016-04-05T10:35:32.712Z,34.52
2016-04-05T10:36:32.434Z,34.13
2016-04-05T10:37:33.530Z,34.32
2016-04-05T10:38:32.329Z,33.94
2016-04-05T10:39:33.614Z,34.13
2016-04-05T10:40:32.725Z,33.65
2016-04-05T10:41:32.353Z,33.84
2016-04-05T10:42:32.903Z,34.13
2016-04-05T10:43:32.452Z,34.22
2016-04-05T10:44:32.878Z,34.03
2016-04-05T10:45:32.567Z,34.13
2016-04-05T10:46:32.992Z,34.13
2016-04-05T10:47:32.369Z,34.22
2016-04-05T10:48:33.435Z,33.94
2016-04-05T10:49:32.391Z,33.94
2016-04-05T10:50:32.393Z,33.65
2016-04-05T10:51:32.411Z,33.66
2016-04-05T10:52:32.414Z,33.09
2016-04-05T10:53:32.416Z,33.28
2016-04-05T10:54:32.419Z,33.09
2016-04-05T10:55:32.437Z,33.37
2016-04-05T10:56:32.425Z,33.28
2016-04-05T10:57:32.443Z,33.18
2016-04-05T10:58:32.446Z,33.28
2016-04-05T10:59:32.433Z,33.76
2016-04-05T11:00:32.452Z,33.86
2016-04-05T11:01:32.454Z,34.05
2016-04-05T11:02:32.457Z,33.86
2016-04-05T11:03:32.459Z,33.86
2016-04-05T11:04:32.479Z,33.95
2016-04-05T11:05:32.481Z,34.24
2016-04-05T11:06:32.499Z,34.14
2016-04-05T11:07:31.752Z,33.95
2016-04-05T11:08:32.575Z,33.86
2016-04-05T11:09:32.490Z,33.86
2016-04-05T11:10:32.492Z,33.95
2016-04-05T11:11:32.495Z,33.76
2016-04-05T11:12:32.512Z,33.78
2016-04-05T11:13:32.515Z,33.68
2016-04-05T11:14:32.534Z,33.78
2016-04-05T11:15:32.521Z,33.68
2016-04-05T11:16:32.509Z,33.68
2016-04-05T11:17:32.542Z,33.48
2016-04-05T11:18:32.545Z,33.68
2016-04-05T11:19:32.548Z,33.1
2016-04-05T11:20:32.550Z,33.1
2016-04-05T11:21:32.553Z,33.48
2016-04-05T11:22:32.572Z,33.58
2016-04-05T11:23:32.559Z,33.2
2016-04-05T11:24:32.577Z,32.81
2016-04-05T11:25:32.579Z,32.81
2016-04-05T11:26:32.785Z,32.91
2016-04-05T11:27:32.585Z,32.91
2016-04-05T11:28:32.603Z,32.62
2016-04-05T11:29:32.606Z,32.62
2016-04-05T11:30:32.608Z,32.43
2016-04-05T11:31:32.627Z,32.52
2016-04-05T11:32:32.614Z,32.33
2016-04-05T11:33:32.616Z,32.43
2016-04-05T11:34:32.619Z,32.24
2016-04-05T11:35:32.638Z,32.24
2016-04-05T11:36:32.640Z,32.52
2016-04-05T11:37:32.643Z,32.71
2016-04-05T11:38:32.660Z,32.64
2016-04-05T11:39:32.679Z,32.54
2016-04-05T11:40:32.682Z,32.54
2016-04-05T11:41:32.684Z,32.24
2016-04-05T11:42:32.687Z,32.24
2016-04-05T11:43:32.705Z,32.15
2016-04-05T11:44:32.692Z,31.96
2016-04-05T11:45:32.711Z,31.96
2016-04-05T11:46:32.697Z,32.06
2016-04-05T11:47:32.701Z,31.67
2016-04-05T11:48:32.734Z,31.76
2016-04-05T11:49:34.019Z,31.67
2016-04-05T11:50:32.724Z,31.76
2016-04-05T11:51:32.725Z,31.57
2016-04-05T11:52:32.720Z,31.57
2016-04-05T11:53:33.619Z,31.76
2016-04-05T11:54:34.300Z,31.38
2016-04-05T11:55:33.107Z,31.49
2016-04-05T11:56:34.336Z,31.4
2016-04-05T11:57:32.743Z,31.3
2016-04-05T11:58:32.820Z,31.4
2016-04-05T11:59:33.381Z,31.49
2016-04-05T12:00:32.726Z,31.4
2016-04-05T12:01:33.334Z,31.01
2016-04-05T12:02:32.743Z,30.91
2016-04-05T12:03:32.760Z,30.91
2016-04-05T12:04:33.417Z,31.01
2016-04-05T12:05:33.668Z,30.93
2016-04-05T12:06:32.906Z,30.93
2016-04-05T12:07:32.767Z,30.83
2016-04-05T12:08:32.785Z,30.93
2016-04-05T12:09:32.787Z,31.12
2016-04-05T12:10:32.789Z,30.83
2016-04-05T12:11:32.823Z,30.73
2016-04-05T12:12:32.810Z,30.93
2016-04-05T12:13:32.797Z,30.54
2016-04-05T12:14:35.815Z,30.83
2016-04-05T12:15:32.818Z,30.54
2016-04-05T12:16:32.852Z,30.27
2016-04-05T12:17:32.823Z,30.36
2016-04-05T12:18:32.842Z,29.97
2016-04-05T12:19:32.861Z,30.17
2016-04-05T12:20:32.863Z,30.17
2016-04-05T12:21:32.866Z,30.27
2016-04-05T12:22:32.883Z,29.88
2016-04-05T12:23:32.871Z,30.07
2016-04-05T12:24:32.889Z,29.69
2016-04-05T12:25:32.877Z,30.17
2016-04-05T12:26:32.910Z,29.88
2016-04-05T12:27:32.913Z,29.97
2016-04-05T12:28:32.915Z,29.97
2016-04-05T12:29:32.919Z,30.27
2016-04-05T12:30:32.921Z,29.88
2016-04-05T12:31:32.986Z,29.59
2016-04-05T12:32:32.957Z,29.19
2016-04-05T12:33:32.945Z,28.89
2016-04-05T12:34:32.947Z,28.99
2016-04-05T12:35:32.950Z,28.89
2016-04-05T12:36:32.968Z,28.98
2016-04-05T12:37:32.971Z,29.56
2016-04-05T12:38:32.974Z,29.67
2016-04-05T12:39:32.977Z,29.75
2016-04-05T12:40:33.010Z,29.77
2016-04-05T12:41:32.997Z,30.05
2016-04-05T12:42:33.015Z,29.86
2016-04-05T12:43:33.034Z,30.05
2016-04-05T12:44:33.037Z,30.25
2016-04-05T12:45:33.024Z,30.15
2016-04-05T12:46:33.136Z,30.05
2016-04-05T12:47:33.044Z,30.25
2016-04-05T12:48:33.064Z,30.07
2016-04-05T12:49:33.051Z,29.97
2016-04-05T12:50:33.069Z,29.97
2016-04-05T12:51:33.087Z,30.17
2016-04-05T12:52:33.075Z,29.59
2016-04-05T12:53:33.092Z,29.88
2016-04-05T12:54:33.095Z,29.88
2016-04-05T12:55:33.316Z,29.97
2016-04-05T12:56:33.100Z,29.59
2016-04-05T12:57:33.118Z,29.69
2016-04-05T12:58:33.106Z,29.69
2016-04-05T12:59:33.124Z,29.88
2016-04-05T13:00:33.126Z,29.88
2016-04-05T13:01:33.160Z,29.78
2016-04-05T13:02:33.148Z,29.8
2016-04-05T13:03:33.165Z,29.69
2016-04-05T13:04:33.168Z,29.6
2016-04-05T13:05:33.187Z,29.41
2016-04-05T13:06:33.173Z,29.22